sensor_id;sensor_type;location;lat;lon;timestamp;P1;durP1;ratioP1;P2;durP2;ratioP2
5801;SDS011;2927;49.366;8.530;2023-04-24T00:02:22;1.30;;;1.00;;
5801;SDS011;2927;49.366;8.530;2023-04-24T00:04:48;0.80;;;0.80;;
5801;SDS011;2927;49.366;8.530;2023-04-24T00:07:14;3.50;;;1.03;;
5801;SDS011;2927;49.366;8.530;2023-04-24T00:09:41;21.70;;;1.40;;
5801;SDS011;2927;49.366;8.530;2023-04-24T00:12:10;1.23;;;1.00;;
5801;SDS011;2927;49.366;8.530;2023-04-24T00:14:36;2.97;;;1.30;;
5801;SDS011;2927;49.366;8.530;2023-04-24T00:17:01;2.50;;;1.60;;
5801;SDS011;2927;49.366;8.530;2023-04-24T00:19:30;6.23;;;1.60;;
5801;SDS011;2927;49.366;8.530;2023-04-24T00:21:55;2.17;;;1.30;;
5801;SDS011;2927;49.366;8.530;2023-04-24T00:24:21;2.73;;;1.77;;
5801;SDS011;2927;49.366;8.530;2023-04-24T00:26:46;2.00;;;1.73;;
5801;SDS011;2927;49.366;8.530;2023-04-24T00:29:12;2.57;;;1.73;;
5801;SDS011;2927;49.366;8.530;2023-04-24T00:31:38;4.73;;;1.83;;
5801;SDS011;2927;49.366;8.530;2023-04-24T00:34:04;4.13;;;2.30;;
5801;SDS011;2927;49.366;8.530;2023-04-24T00:36:30;3.17;;;1.60;;
5801;SDS011;2927;49.366;8.530;2023-04-24T00:38:56;2.23;;;1.70;;
5801;SDS011;2927;49.366;8.530;2023-04-24T00:41:22;6.93;;;1.93;;
5801;SDS011;2927;49.366;8.530;2023-04-24T00:43:49;1.77;;;1.63;;
5801;SDS011;2927;49.366;8.530;2023-04-24T00:46:15;4.10;;;2.20;;
5801;SDS011;2927;49.366;8.530;2023-04-24T00:48:41;1.73;;;1.50;;
5801;SDS011;2927;49.366;8.530;2023-04-24T00:51:08;1.53;;;1.43;;
5801;SDS011;2927;49.366;8.530;2023-04-24T00:53:34;1.80;;;1.70;;
5801;SDS011;2927;49.366;8.530;2023-04-24T00:56:00;4.20;;;1.40;;
5801;SDS011;2927;49.366;8.530;2023-04-24T00:58:26;3.10;;;1.20;;
5801;SDS011;2927;49.366;8.530;2023-04-24T01:00:52;3.50;;;1.50;;
5801;SDS011;2927;49.366;8.530;2023-04-24T01:03:22;0.73;;;0.73;;
5801;SDS011;2927;49.366;8.530;2023-04-24T01:05:51;2.03;;;1.03;;
5801;SDS011;2927;49.366;8.530;2023-04-24T01:08:19;1.17;;;1.00;;
5801;SDS011;2927;49.366;8.530;2023-04-24T01:10:45;2.50;;;1.10;;
5801;SDS011;2927;49.366;8.530;2023-04-24T01:13:12;2.20;;;1.00;;
5801;SDS011;2927;49.366;8.530;2023-04-24T01:15:38;2.10;;;1.17;;
5801;SDS011;2927;49.366;8.530;2023-04-24T01:18:04;3.90;;;1.10;;
5801;SDS011;2927;49.366;8.530;2023-04-24T01:20:30;4.70;;;1.23;;
5801;SDS011;2927;49.366;8.530;2023-04-24T01:22:56;1.90;;;0.90;;
5801;SDS011;2927;49.366;8.530;2023-04-24T01:25:22;1.37;;;0.90;;
5801;SDS011;2927;49.366;8.530;2023-04-24T01:27:49;1.97;;;1.03;;
5801;SDS011;2927;49.366;8.530;2023-04-24T01:30:15;2.77;;;1.20;;
5801;SDS011;2927;49.366;8.530;2023-04-24T01:32:40;1.13;;;1.13;;
5801;SDS011;2927;49.366;8.530;2023-04-24T01:35:09;3.30;;;1.17;;
5801;SDS011;2927;49.366;8.530;2023-04-24T01:37:35;1.03;;;0.93;;
5801;SDS011;2927;49.366;8.530;2023-04-24T01:40:02;1.27;;;0.80;;
5801;SDS011;2927;49.366;8.530;2023-04-24T01:42:29;2.07;;;1.00;;
5801;SDS011;2927;49.366;8.530;2023-04-24T01:44:55;5.90;;;1.10;;
5801;SDS011;2927;49.366;8.530;2023-04-24T01:47:21;0.90;;;0.90;;
5801;SDS011;2927;49.366;8.530;2023-04-24T01:49:47;1.33;;;1.10;;
5801;SDS011;2927;49.366;8.530;2023-04-24T01:52:14;1.33;;;1.23;;
5801;SDS011;2927;49.366;8.530;2023-04-24T01:54:40;9.70;;;1.10;;
5801;SDS011;2927;49.366;8.530;2023-04-24T01:57:05;4.73;;;1.70;;
5801;SDS011;2927;49.366;8.530;2023-04-24T01:59:31;3.10;;;1.37;;
5801;SDS011;2927;49.366;8.530;2023-04-24T02:01:59;3.57;;;1.67;;
5801;SDS011;2927;49.366;8.530;2023-04-24T02:04:25;2.80;;;1.33;;
5801;SDS011;2927;49.366;8.530;2023-04-24T02:06:50;6.07;;;1.50;;
5801;SDS011;2927;49.366;8.530;2023-04-24T02:09:16;4.73;;;1.73;;
5801;SDS011;2927;49.366;8.530;2023-04-24T02:11:41;4.80;;;1.60;;
5801;SDS011;2927;49.366;8.530;2023-04-24T02:14:07;5.33;;;1.50;;
5801;SDS011;2927;49.366;8.530;2023-04-24T02:16:32;2.87;;;1.90;;
5801;SDS011;2927;49.366;8.530;2023-04-24T02:18:58;7.80;;;1.60;;
5801;SDS011;2927;49.366;8.530;2023-04-24T02:21:24;1.50;;;1.40;;
5801;SDS011;2927;49.366;8.530;2023-04-24T02:23:50;1.50;;;1.10;;
5801;SDS011;2927;49.366;8.530;2023-04-24T02:26:15;1.60;;;1.50;;
5801;SDS011;2927;49.366;8.530;2023-04-24T02:28:41;1.67;;;1.30;;
5801;SDS011;2927;49.366;8.530;2023-04-24T02:31:06;3.20;;;1.50;;
5801;SDS011;2927;49.366;8.530;2023-04-24T02:33:32;2.07;;;1.10;;
5801;SDS011;2927;49.366;8.530;2023-04-24T02:35:58;4.33;;;1.70;;
5801;SDS011;2927;49.366;8.530;2023-04-24T02:38:23;2.47;;;1.40;;
5801;SDS011;2927;49.366;8.530;2023-04-24T02:40:49;2.33;;;1.97;;
5801;SDS011;2927;49.366;8.530;2023-04-24T02:43:14;1.43;;;1.10;;
5801;SDS011;2927;49.366;8.530;2023-04-24T02:45:40;1.50;;;1.40;;
5801;SDS011;2927;49.366;8.530;2023-04-24T02:48:05;1.60;;;1.27;;
5801;SDS011;2927;49.366;8.530;2023-04-24T02:50:31;2.20;;;1.60;;
5801;SDS011;2927;49.366;8.530;2023-04-24T02:52:57;2.13;;;1.73;;
5801;SDS011;2927;49.366;8.530;2023-04-24T02:55:22;9.20;;;1.50;;
5801;SDS011;2927;49.366;8.530;2023-04-24T02:57:48;7.63;;;1.40;;
5801;SDS011;2927;49.366;8.530;2023-04-24T03:00:13;4.10;;;1.50;;
5801;SDS011;2927;49.366;8.530;2023-04-24T03:02:39;5.17;;;2.00;;
5801;SDS011;2927;49.366;8.530;2023-04-24T03:05:05;13.63;;;1.30;;
5801;SDS011;2927;49.366;8.530;2023-04-24T03:07:30;9.33;;;1.30;;
5801;SDS011;2927;49.366;8.530;2023-04-24T03:09:57;2.03;;;1.30;;
5801;SDS011;2927;49.366;8.530;2023-04-24T03:12:23;1.87;;;1.00;;
5801;SDS011;2927;49.366;8.530;2023-04-24T03:14:48;3.10;;;1.17;;
5801;SDS011;2927;49.366;8.530;2023-04-24T03:17:14;3.00;;;1.30;;
5801;SDS011;2927;49.366;8.530;2023-04-24T03:19:40;4.13;;;1.80;;
5801;SDS011;2927;49.366;8.530;2023-04-24T03:22:05;4.10;;;1.53;;
5801;SDS011;2927;49.366;8.530;2023-04-24T03:24:31;1.13;;;1.13;;
5801;SDS011;2927;49.366;8.530;2023-04-24T03:26:57;2.97;;;1.20;;
5801;SDS011;2927;49.366;8.530;2023-04-24T03:29:22;1.67;;;1.57;;
5801;SDS011;2927;49.366;8.530;2023-04-24T03:31:48;2.77;;;1.37;;
5801;SDS011;2927;49.366;8.530;2023-04-24T03:34:13;1.83;;;1.60;;
5801;SDS011;2927;49.366;8.530;2023-04-24T03:36:39;2.50;;;1.70;;
5801;SDS011;2927;49.366;8.530;2023-04-24T03:39:04;4.67;;;1.13;;
5801;SDS011;2927;49.366;8.530;2023-04-24T03:41:30;1.90;;;1.40;;
5801;SDS011;2927;49.366;8.530;2023-04-24T03:43:56;1.90;;;1.80;;
5801;SDS011;2927;49.366;8.530;2023-04-24T03:46:21;3.57;;;2.17;;
5801;SDS011;2927;49.366;8.530;2023-04-24T03:48:47;4.00;;;1.47;;
5801;SDS011;2927;49.366;8.530;2023-04-24T03:51:12;1.33;;;1.23;;
5801;SDS011;2927;49.366;8.530;2023-04-24T03:53:38;2.07;;;1.90;;
5801;SDS011;2927;49.366;8.530;2023-04-24T03:56:03;2.00;;;1.30;;
5801;SDS011;2927;49.366;8.530;2023-04-24T03:58:29;1.60;;;1.50;;
5801;SDS011;2927;49.366;8.530;2023-04-24T04:00:54;2.10;;;1.57;;
5801;SDS011;2927;49.366;8.530;2023-04-24T04:03:21;1.77;;;1.53;;
5801;SDS011;2927;49.366;8.530;2023-04-24T04:05:47;4.40;;;1.87;;
5801;SDS011;2927;49.366;8.530;2023-04-24T04:08:12;2.87;;;1.73;;
5801;SDS011;2927;49.366;8.530;2023-04-24T04:10:38;2.20;;;1.97;;
5801;SDS011;2927;49.366;8.530;2023-04-24T04:13:03;3.67;;;1.83;;
5801;SDS011;2927;49.366;8.530;2023-04-24T04:15:31;2.73;;;2.20;;
5801;SDS011;2927;49.366;8.530;2023-04-24T04:17:56;5.90;;;2.43;;
5801;SDS011;2927;49.366;8.530;2023-04-24T04:20:22;9.87;;;2.73;;
5801;SDS011;2927;49.366;8.530;2023-04-24T04:22:47;3.40;;;2.57;;
5801;SDS011;2927;49.366;8.530;2023-04-24T04:25:13;4.73;;;3.17;;
5801;SDS011;2927;49.366;8.530;2023-04-24T04:27:39;5.73;;;2.90;;
5801;SDS011;2927;49.366;8.530;2023-04-24T04:30:06;4.03;;;3.37;;
5801;SDS011;2927;49.366;8.530;2023-04-24T04:32:33;4.00;;;2.83;;
5801;SDS011;2927;49.366;8.530;2023-04-24T04:35:00;4.77;;;3.33;;
5801;SDS011;2927;49.366;8.530;2023-04-24T04:37:29;3.63;;;3.30;;
5801;SDS011;2927;49.366;8.530;2023-04-24T04:39:56;6.57;;;3.10;;
5801;SDS011;2927;49.366;8.530;2023-04-24T04:42:23;4.10;;;2.50;;
5801;SDS011;2927;49.366;8.530;2023-04-24T04:44:49;3.23;;;2.80;;
5801;SDS011;2927;49.366;8.530;2023-04-24T04:47:15;4.77;;;3.13;;
5801;SDS011;2927;49.366;8.530;2023-04-24T04:49:42;3.50;;;2.90;;
5801;SDS011;2927;49.366;8.530;2023-04-24T04:52:08;5.33;;;2.77;;
5801;SDS011;2927;49.366;8.530;2023-04-24T04:54:33;6.80;;;3.40;;
5801;SDS011;2927;49.366;8.530;2023-04-24T04:56:59;9.03;;;3.00;;
5801;SDS011;2927;49.366;8.530;2023-04-24T04:59:25;3.07;;;2.37;;
5801;SDS011;2927;49.366;8.530;2023-04-24T05:01:51;3.70;;;3.40;;
5801;SDS011;2927;49.366;8.530;2023-04-24T05:04:17;2.97;;;2.77;;
5801;SDS011;2927;49.366;8.530;2023-04-24T05:06:43;4.07;;;3.27;;
5801;SDS011;2927;49.366;8.530;2023-04-24T05:09:08;3.70;;;2.93;;
5801;SDS011;2927;49.366;8.530;2023-04-24T05:11:34;2.63;;;2.40;;
5801;SDS011;2927;49.366;8.530;2023-04-24T05:14:00;5.17;;;3.83;;
5801;SDS011;2927;49.366;8.530;2023-04-24T05:16:26;8.33;;;3.63;;
5801;SDS011;2927;49.366;8.530;2023-04-24T05:18:51;2.97;;;2.77;;
5801;SDS011;2927;49.366;8.530;2023-04-24T05:21:17;4.00;;;3.60;;
5801;SDS011;2927;49.366;8.530;2023-04-24T05:23:42;3.27;;;3.00;;
5801;SDS011;2927;49.366;8.530;2023-04-24T05:26:08;4.23;;;2.93;;
5801;SDS011;2927;49.366;8.530;2023-04-24T05:28:33;3.83;;;2.60;;
5801;SDS011;2927;49.366;8.530;2023-04-24T05:31:01;6.20;;;2.60;;
5801;SDS011;2927;49.366;8.530;2023-04-24T05:33:27;5.87;;;3.90;;
5801;SDS011;2927;49.366;8.530;2023-04-24T05:35:53;3.27;;;3.03;;
5801;SDS011;2927;49.366;8.530;2023-04-24T05:38:19;2.37;;;2.27;;
5801;SDS011;2927;49.366;8.530;2023-04-24T05:40:45;6.20;;;3.30;;
5801;SDS011;2927;49.366;8.530;2023-04-24T05:43:11;5.83;;;3.53;;
5801;SDS011;2927;49.366;8.530;2023-04-24T05:45:37;3.80;;;3.40;;
5801;SDS011;2927;49.366;8.530;2023-04-24T05:48:03;3.47;;;2.63;;
5801;SDS011;2927;49.366;8.530;2023-04-24T05:50:28;3.20;;;2.93;;
5801;SDS011;2927;49.366;8.530;2023-04-24T05:52:54;2.87;;;2.57;;
5801;SDS011;2927;49.366;8.530;2023-04-24T05:55:20;4.83;;;3.03;;
5801;SDS011;2927;49.366;8.530;2023-04-24T05:57:45;3.07;;;1.87;;
5801;SDS011;2927;49.366;8.530;2023-04-24T06:00:11;2.27;;;2.07;;
5801;SDS011;2927;49.366;8.530;2023-04-24T06:02:37;3.43;;;1.57;;
5801;SDS011;2927;49.366;8.530;2023-04-24T06:05:03;2.03;;;1.47;;
5801;SDS011;2927;49.366;8.530;2023-04-24T06:07:29;3.73;;;2.00;;
5801;SDS011;2927;49.366;8.530;2023-04-24T06:09:55;2.17;;;1.97;;
5801;SDS011;2927;49.366;8.530;2023-04-24T06:12:21;1.67;;;1.57;;
5801;SDS011;2927;49.366;8.530;2023-04-24T06:14:47;2.70;;;2.50;;
5801;SDS011;2927;49.366;8.530;2023-04-24T06:17:13;3.07;;;1.33;;
5801;SDS011;2927;49.366;8.530;2023-04-24T06:19:39;2.03;;;1.93;;
5801;SDS011;2927;49.366;8.530;2023-04-24T06:22:05;2.97;;;2.03;;
5801;SDS011;2927;49.366;8.530;2023-04-24T06:24:30;4.10;;;2.23;;
5801;SDS011;2927;49.366;8.530;2023-04-24T06:26:56;2.67;;;2.47;;
5801;SDS011;2927;49.366;8.530;2023-04-24T06:29:23;1.87;;;1.70;;
5801;SDS011;2927;49.366;8.530;2023-04-24T06:31:49;2.83;;;2.00;;
5801;SDS011;2927;49.366;8.530;2023-04-24T06:34:15;3.30;;;2.37;;
5801;SDS011;2927;49.366;8.530;2023-04-24T06:36:40;2.80;;;2.10;;
5801;SDS011;2927;49.366;8.530;2023-04-24T06:39:06;3.73;;;2.87;;
5801;SDS011;2927;49.366;8.530;2023-04-24T06:41:31;2.30;;;2.17;;
5801;SDS011;2927;49.366;8.530;2023-04-24T06:43:57;2.47;;;2.27;;
5801;SDS011;2927;49.366;8.530;2023-04-24T06:46:23;2.10;;;2.00;;
5801;SDS011;2927;49.366;8.530;2023-04-24T06:48:51;3.97;;;2.20;;
5801;SDS011;2927;49.366;8.530;2023-04-24T06:51:17;2.20;;;2.10;;
5801;SDS011;2927;49.366;8.530;2023-04-24T06:53:43;8.97;;;3.00;;
5801;SDS011;2927;49.366;8.530;2023-04-24T06:56:08;2.20;;;2.00;;
5801;SDS011;2927;49.366;8.530;2023-04-24T06:58:34;4.30;;;1.40;;
5801;SDS011;2927;49.366;8.530;2023-04-24T07:01:00;2.40;;;1.07;;
5801;SDS011;2927;49.366;8.530;2023-04-24T07:03:26;1.47;;;1.10;;
5801;SDS011;2927;49.366;8.530;2023-04-24T07:05:51;0.67;;;0.67;;
5801;SDS011;2927;49.366;8.530;2023-04-24T07:08:18;1.67;;;0.80;;
5801;SDS011;2927;49.366;8.530;2023-04-24T07:10:45;0.80;;;0.70;;
5801;SDS011;2927;49.366;8.530;2023-04-24T07:13:11;1.27;;;0.90;;
5801;SDS011;2927;49.366;8.530;2023-04-24T07:15:36;0.60;;;0.60;;
5801;SDS011;2927;49.366;8.530;2023-04-24T07:18:02;2.40;;;1.20;;
5801;SDS011;2927;49.366;8.530;2023-04-24T07:20:28;1.20;;;1.00;;
5801;SDS011;2927;49.366;8.530;2023-04-24T07:22:53;1.10;;;1.00;;
5801;SDS011;2927;49.366;8.530;2023-04-24T07:25:19;0.90;;;0.67;;
5801;SDS011;2927;49.366;8.530;2023-04-24T07:27:45;1.70;;;1.60;;
5801;SDS011;2927;49.366;8.530;2023-04-24T07:30:11;1.13;;;1.03;;
5801;SDS011;2927;49.366;8.530;2023-04-24T07:32:36;2.70;;;1.43;;
5801;SDS011;2927;49.366;8.530;2023-04-24T07:35:02;1.53;;;1.00;;
5801;SDS011;2927;49.366;8.530;2023-04-24T07:37:28;2.93;;;1.30;;
5801;SDS011;2927;49.366;8.530;2023-04-24T07:39:54;5.60;;;1.53;;
5801;SDS011;2927;49.366;8.530;2023-04-24T07:42:20;1.00;;;1.00;;
5801;SDS011;2927;49.366;8.530;2023-04-24T07:44:45;1.23;;;1.10;;
5801;SDS011;2927;49.366;8.530;2023-04-24T07:47:12;1.20;;;1.20;;
5801;SDS011;2927;49.366;8.530;2023-04-24T07:49:40;1.27;;;1.17;;
5801;SDS011;2927;49.366;8.530;2023-04-24T07:52:06;1.70;;;0.77;;
5801;SDS011;2927;49.366;8.530;2023-04-24T07:54:32;1.50;;;1.40;;
5801;SDS011;2927;49.366;8.530;2023-04-24T07:56:57;1.77;;;0.90;;
5801;SDS011;2927;49.366;8.530;2023-04-24T07:59:23;4.10;;;1.30;;
5801;SDS011;2927;49.366;8.530;2023-04-24T08:01:48;0.97;;;0.97;;
5801;SDS011;2927;49.366;8.530;2023-04-24T08:04:14;2.33;;;1.30;;
5801;SDS011;2927;49.366;8.530;2023-04-24T08:06:40;1.87;;;1.77;;
5801;SDS011;2927;49.366;8.530;2023-04-24T08:09:05;3.60;;;1.30;;
5801;SDS011;2927;49.366;8.530;2023-04-24T08:11:31;2.67;;;0.83;;
5801;SDS011;2927;49.366;8.530;2023-04-24T08:13:57;1.87;;;0.77;;
5801;SDS011;2927;49.366;8.530;2023-04-24T08:16:23;0.80;;;0.80;;
5801;SDS011;2927;49.366;8.530;2023-04-24T08:18:49;1.90;;;1.17;;
5801;SDS011;2927;49.366;8.530;2023-04-24T08:21:15;1.10;;;1.10;;
5801;SDS011;2927;49.366;8.530;2023-04-24T08:23:42;1.37;;;0.93;;
5801;SDS011;2927;49.366;8.530;2023-04-24T08:26:08;1.20;;;1.10;;
5801;SDS011;2927;49.366;8.530;2023-04-24T08:28:34;1.27;;;0.90;;
5801;SDS011;2927;49.366;8.530;2023-04-24T08:30:59;3.47;;;1.00;;
5801;SDS011;2927;49.366;8.530;2023-04-24T08:33:25;2.10;;;1.00;;
5801;SDS011;2927;49.366;8.530;2023-04-24T08:35:50;1.90;;;1.13;;
5801;SDS011;2927;49.366;8.530;2023-04-24T08:38:16;5.23;;;1.20;;
5801;SDS011;2927;49.366;8.530;2023-04-24T08:40:42;4.20;;;0.80;;
5801;SDS011;2927;49.366;8.530;2023-04-24T08:43:08;1.00;;;0.70;;
5801;SDS011;2927;49.366;8.530;2023-04-24T08:45:35;4.70;;;2.13;;
5801;SDS011;2927;49.366;8.530;2023-04-24T08:48:01;1.73;;;1.63;;
5801;SDS011;2927;49.366;8.530;2023-04-24T08:50:27;0.80;;;0.77;;
5801;SDS011;2927;49.366;8.530;2023-04-24T08:52:54;1.83;;;1.73;;
5801;SDS011;2927;49.366;8.530;2023-04-24T08:55:20;2.50;;;0.70;;
5801;SDS011;2927;49.366;8.530;2023-04-24T08:57:49;0.70;;;0.70;;
5801;SDS011;2927;49.366;8.530;2023-04-24T09:00:17;2.90;;;1.13;;
5801;SDS011;2927;49.366;8.530;2023-04-24T09:02:47;0.77;;;0.77;;
5801;SDS011;2927;49.366;8.530;2023-04-24T09:05:15;9.60;;;1.57;;
5801;SDS011;2927;49.366;8.530;2023-04-24T09:07:43;1.00;;;1.00;;
5801;SDS011;2927;49.366;8.530;2023-04-24T09:10:11;1.43;;;0.90;;
5801;SDS011;2927;49.366;8.530;2023-04-24T09:12:37;2.20;;;1.20;;
5801;SDS011;2927;49.366;8.530;2023-04-24T09:15:03;1.00;;;0.90;;
5801;SDS011;2927;49.366;8.530;2023-04-24T09:17:30;1.20;;;1.10;;
5801;SDS011;2927;49.366;8.530;2023-04-24T09:19:55;1.80;;;0.97;;
5801;SDS011;2927;49.366;8.530;2023-04-24T09:22:21;1.10;;;1.10;;
5801;SDS011;2927;49.366;8.530;2023-04-24T09:24:47;1.57;;;0.87;;
5801;SDS011;2927;49.366;8.530;2023-04-24T09:27:13;1.00;;;0.90;;
5801;SDS011;2927;49.366;8.530;2023-04-24T09:29:52;2.10;;;1.10;;
5801;SDS011;2927;49.366;8.530;2023-04-24T09:32:20;3.23;;;1.37;;
5801;SDS011;2927;49.366;8.530;2023-04-24T09:34:47;3.30;;;1.30;;
5801;SDS011;2927;49.366;8.530;2023-04-24T09:37:29;5.63;;;1.17;;
5801;SDS011;2927;49.366;8.530;2023-04-24T09:40:07;1.43;;;1.33;;
5801;SDS011;2927;49.366;8.530;2023-04-24T09:42:33;1.60;;;1.27;;
5801;SDS011;2927;49.366;8.530;2023-04-24T09:44:59;2.43;;;1.17;;
5801;SDS011;2927;49.366;8.530;2023-04-24T09:47:24;2.23;;;1.13;;
5801;SDS011;2927;49.366;8.530;2023-04-24T09:49:50;1.57;;;1.40;;
5801;SDS011;2927;49.366;8.530;2023-04-24T09:52:22;3.00;;;1.90;;
5801;SDS011;2927;49.366;8.530;2023-04-24T09:54:52;1.87;;;1.57;;
5801;SDS011;2927;49.366;8.530;2023-04-24T09:57:18;6.13;;;2.30;;
5801;SDS011;2927;49.366;8.530;2023-04-24T09:59:45;2.10;;;2.00;;
5801;SDS011;2927;49.366;8.530;2023-04-24T10:02:17;2.90;;;2.17;;
5801;SDS011;2927;49.366;8.530;2023-04-24T10:04:53;5.50;;;3.00;;
5801;SDS011;2927;49.366;8.530;2023-04-24T10:07:25;2.40;;;2.20;;
5801;SDS011;2927;49.366;8.530;2023-04-24T10:09:51;6.23;;;2.10;;
5801;SDS011;2927;49.366;8.530;2023-04-24T10:12:17;1.83;;;1.70;;
5801;SDS011;2927;49.366;8.530;2023-04-24T10:14:44;2.30;;;1.90;;
5801;SDS011;2927;49.366;8.530;2023-04-24T10:17:10;5.40;;;2.60;;
5801;SDS011;2927;49.366;8.530;2023-04-24T10:19:37;1.63;;;1.53;;
5801;SDS011;2927;49.366;8.530;2023-04-24T10:22:03;5.07;;;1.53;;
5801;SDS011;2927;49.366;8.530;2023-04-24T10:24:29;2.13;;;1.73;;
5801;SDS011;2927;49.366;8.530;2023-04-24T10:26:56;2.43;;;1.40;;
5801;SDS011;2927;49.366;8.530;2023-04-24T10:29:22;3.43;;;1.37;;
5801;SDS011;2927;49.366;8.530;2023-04-24T10:31:49;2.07;;;1.03;;
5801;SDS011;2927;49.366;8.530;2023-04-24T10:34:15;2.83;;;1.10;;
5801;SDS011;2927;49.366;8.530;2023-04-24T10:36:50;1.20;;;1.10;;
5801;SDS011;2927;49.366;8.530;2023-04-24T10:39:18;4.93;;;1.43;;
5801;SDS011;2927;49.366;8.530;2023-04-24T10:41:45;2.13;;;1.20;;
5801;SDS011;2927;49.366;8.530;2023-04-24T10:44:12;1.60;;;1.50;;
5801;SDS011;2927;49.366;8.530;2023-04-24T10:46:43;2.03;;;1.93;;
5801;SDS011;2927;49.366;8.530;2023-04-24T10:49:10;1.73;;;1.63;;
5801;SDS011;2927;49.366;8.530;2023-04-24T10:51:43;3.50;;;1.93;;
5801;SDS011;2927;49.366;8.530;2023-04-24T10:59:45;1.57;;;1.47;;
5801;SDS011;2927;49.366;8.530;2023-04-24T11:02:15;2.23;;;2.03;;
5801;SDS011;2927;49.366;8.530;2023-04-24T11:04:42;2.13;;;2.03;;
5801;SDS011;2927;49.366;8.530;2023-04-24T11:07:11;5.70;;;2.13;;
5801;SDS011;2927;49.366;8.530;2023-04-24T11:09:37;3.03;;;2.23;;
5801;SDS011;2927;49.366;8.530;2023-04-24T11:12:11;2.63;;;2.43;;
5801;SDS011;2927;49.366;8.530;2023-04-24T11:17:35;2.33;;;2.23;;
5801;SDS011;2927;49.366;8.530;2023-04-24T11:20:03;3.33;;;2.50;;
5801;SDS011;2927;49.366;8.530;2023-04-24T11:22:32;7.17;;;2.83;;
5801;SDS011;2927;49.366;8.530;2023-04-24T11:25:00;2.40;;;2.20;;
5801;SDS011;2927;49.366;8.530;2023-04-24T11:27:30;3.30;;;1.70;;
5801;SDS011;2927;49.366;8.530;2023-04-24T11:32:28;3.00;;;2.70;;
5801;SDS011;2927;49.366;8.530;2023-04-24T11:34:58;3.27;;;2.97;;
5801;SDS011;2927;49.366;8.530;2023-04-24T11:37:41;3.80;;;2.40;;
5801;SDS011;2927;49.366;8.530;2023-04-24T11:40:09;3.53;;;2.40;;
5801;SDS011;2927;49.366;8.530;2023-04-24T11:42:36;4.00;;;2.30;;
5801;SDS011;2927;49.366;8.530;2023-04-24T11:45:22;5.63;;;2.43;;
5801;SDS011;2927;49.366;8.530;2023-04-24T11:47:49;3.30;;;2.20;;
5801;SDS011;2927;49.366;8.530;2023-04-24T11:50:16;4.97;;;3.10;;
5801;SDS011;2927;49.366;8.530;2023-04-24T11:52:43;2.07;;;1.97;;
5801;SDS011;2927;49.366;8.530;2023-04-24T11:57:38;3.10;;;2.67;;
5801;SDS011;2927;49.366;8.530;2023-04-24T12:00:04;4.80;;;2.70;;
5801;SDS011;2927;49.366;8.530;2023-04-24T12:02:30;2.27;;;2.07;;
5801;SDS011;2927;49.366;8.530;2023-04-24T12:04:56;3.30;;;2.60;;
5801;SDS011;2927;49.366;8.530;2023-04-24T12:07:22;2.80;;;2.20;;
5801;SDS011;2927;49.366;8.530;2023-04-24T12:09:57;4.17;;;2.63;;
5801;SDS011;2927;49.366;8.530;2023-04-24T12:12:25;3.03;;;2.73;;
5801;SDS011;2927;49.366;8.530;2023-04-24T12:14:53;4.47;;;3.10;;
5801;SDS011;2927;49.366;8.530;2023-04-24T12:17:23;5.70;;;3.17;;
5801;SDS011;2927;49.366;8.530;2023-04-24T12:19:51;4.03;;;2.80;;
5801;SDS011;2927;49.366;8.530;2023-04-24T12:22:16;3.03;;;2.40;;
5801;SDS011;2927;49.366;8.530;2023-04-24T12:25:03;3.50;;;2.00;;
5801;SDS011;2927;49.366;8.530;2023-04-24T12:27:30;3.60;;;2.43;;
5801;SDS011;2927;49.366;8.530;2023-04-24T12:29:59;4.23;;;2.90;;
5801;SDS011;2927;49.366;8.530;2023-04-24T12:32:29;8.03;;;2.57;;
5801;SDS011;2927;49.366;8.530;2023-04-24T12:34:55;3.40;;;2.57;;
5801;SDS011;2927;49.366;8.530;2023-04-24T12:37:25;5.07;;;2.60;;
5801;SDS011;2927;49.366;8.530;2023-04-24T12:40:01;2.90;;;2.07;;
5801;SDS011;2927;49.366;8.530;2023-04-24T12:42:36;3.00;;;2.30;;
5801;SDS011;2927;49.366;8.530;2023-04-24T12:45:08;2.43;;;2.23;;
5801;SDS011;2927;49.366;8.530;2023-04-24T12:47:34;3.90;;;2.20;;
5801;SDS011;2927;49.366;8.530;2023-04-24T12:50:01;3.30;;;2.00;;
5801;SDS011;2927;49.366;8.530;2023-04-24T12:52:28;4.00;;;2.00;;
5801;SDS011;2927;49.366;8.530;2023-04-24T12:54:56;1.97;;;1.73;;
5801;SDS011;2927;49.366;8.530;2023-04-24T12:57:23;5.10;;;2.43;;
5801;SDS011;2927;49.366;8.530;2023-04-24T12:59:49;5.97;;;2.20;;
5801;SDS011;2927;49.366;8.530;2023-04-24T13:02:15;2.40;;;2.20;;
5801;SDS011;2927;49.366;8.530;2023-04-24T13:04:44;3.40;;;2.10;;
5801;SDS011;2927;49.366;8.530;2023-04-24T13:07:11;3.97;;;2.77;;
5801;SDS011;2927;49.366;8.530;2023-04-24T13:09:38;6.63;;;2.67;;
5801;SDS011;2927;49.366;8.530;2023-04-24T13:12:04;2.97;;;2.33;;
5801;SDS011;2927;49.366;8.530;2023-04-24T13:14:34;3.03;;;1.97;;
5801;SDS011;2927;49.366;8.530;2023-04-24T13:17:00;3.90;;;2.10;;
5801;SDS011;2927;49.366;8.530;2023-04-24T13:19:26;4.00;;;1.90;;
5801;SDS011;2927;49.366;8.530;2023-04-24T13:21:54;4.87;;;1.87;;
5801;SDS011;2927;49.366;8.530;2023-04-24T13:24:21;2.27;;;2.07;;
5801;SDS011;2927;49.366;8.530;2023-04-24T13:26:50;4.40;;;1.87;;
5801;SDS011;2927;49.366;8.530;2023-04-24T13:29:16;4.83;;;2.17;;
5801;SDS011;2927;49.366;8.530;2023-04-24T13:31:42;2.33;;;1.90;;
5801;SDS011;2927;49.366;8.530;2023-04-24T13:34:07;3.90;;;2.00;;
5801;SDS011;2927;49.366;8.530;2023-04-24T13:36:33;8.83;;;2.33;;
5801;SDS011;2927;49.366;8.530;2023-04-24T13:38:58;1.50;;;1.40;;
5801;SDS011;2927;49.366;8.530;2023-04-24T13:41:24;2.20;;;2.00;;
5801;SDS011;2927;49.366;8.530;2023-04-24T13:43:49;6.50;;;1.87;;
5801;SDS011;2927;49.366;8.530;2023-04-24T13:46:15;3.23;;;2.20;;
5801;SDS011;2927;49.366;8.530;2023-04-24T13:48:41;2.53;;;1.80;;
5801;SDS011;2927;49.366;8.530;2023-04-24T13:51:07;2.80;;;1.90;;
5801;SDS011;2927;49.366;8.530;2023-04-24T13:53:32;3.23;;;2.80;;
5801;SDS011;2927;49.366;8.530;2023-04-24T13:56:01;1.67;;;1.57;;
5801;SDS011;2927;49.366;8.530;2023-04-24T13:58:27;3.07;;;1.80;;
5801;SDS011;2927;49.366;8.530;2023-04-24T14:00:52;6.30;;;2.90;;
5801;SDS011;2927;49.366;8.530;2023-04-24T14:03:18;2.37;;;2.27;;
5801;SDS011;2927;49.366;8.530;2023-04-24T14:05:43;6.00;;;2.40;;
5801;SDS011;2927;49.366;8.530;2023-04-24T14:08:09;2.60;;;2.30;;
5801;SDS011;2927;49.366;8.530;2023-04-24T14:10:34;6.77;;;2.30;;
5801;SDS011;2927;49.366;8.530;2023-04-24T14:13:00;3.47;;;2.13;;
5801;SDS011;2927;49.366;8.530;2023-04-24T14:15:26;6.27;;;2.23;;
5801;SDS011;2927;49.366;8.530;2023-04-24T14:17:51;3.07;;;2.53;;
5801;SDS011;2927;49.366;8.530;2023-04-24T14:20:17;2.23;;;2.03;;
5801;SDS011;2927;49.366;8.530;2023-04-24T14:22:43;3.27;;;1.73;;
5801;SDS011;2927;49.366;8.530;2023-04-24T14:25:08;2.70;;;2.07;;
5801;SDS011;2927;49.366;8.530;2023-04-24T14:27:34;3.93;;;2.27;;
5801;SDS011;2927;49.366;8.530;2023-04-24T14:30:00;4.10;;;2.20;;
5801;SDS011;2927;49.366;8.530;2023-04-24T14:32:26;1.70;;;1.60;;
5801;SDS011;2927;49.366;8.530;2023-04-24T14:34:51;2.23;;;1.67;;
5801;SDS011;2927;49.366;8.530;2023-04-24T14:37:17;2.20;;;2.00;;
5801;SDS011;2927;49.366;8.530;2023-04-24T14:39:42;2.90;;;2.23;;
5801;SDS011;2927;49.366;8.530;2023-04-24T14:42:08;3.63;;;1.73;;
5801;SDS011;2927;49.366;8.530;2023-04-24T14:44:34;3.43;;;2.50;;
5801;SDS011;2927;49.366;8.530;2023-04-24T14:46:59;3.30;;;2.03;;
5801;SDS011;2927;49.366;8.530;2023-04-24T14:49:25;3.37;;;2.50;;
5801;SDS011;2927;49.366;8.530;2023-04-24T14:51:51;3.37;;;1.70;;
5801;SDS011;2927;49.366;8.530;2023-04-24T14:54:16;2.77;;;2.20;;
5801;SDS011;2927;49.366;8.530;2023-04-24T14:56:42;2.57;;;2.37;;
5801;SDS011;2927;49.366;8.530;2023-04-24T14:59:09;4.73;;;1.87;;
5801;SDS011;2927;49.366;8.530;2023-04-24T15:01:35;5.20;;;2.37;;
5801;SDS011;2927;49.366;8.530;2023-04-24T15:04:00;2.70;;;2.03;;
5801;SDS011;2927;49.366;8.530;2023-04-24T15:06:26;2.70;;;2.50;;
5801;SDS011;2927;49.366;8.530;2023-04-24T15:08:51;3.67;;;2.63;;
5801;SDS011;2927;49.366;8.530;2023-04-24T15:11:17;4.97;;;2.63;;
5801;SDS011;2927;49.366;8.530;2023-04-24T15:13:43;3.83;;;1.83;;
5801;SDS011;2927;49.366;8.530;2023-04-24T15:16:10;9.27;;;2.67;;
5801;SDS011;2927;49.366;8.530;2023-04-24T15:18:36;2.47;;;1.97;;
5801;SDS011;2927;49.366;8.530;2023-04-24T15:21:01;2.43;;;2.23;;
5801;SDS011;2927;49.366;8.530;2023-04-24T15:23:27;10.23;;;5.10;;
5801;SDS011;2927;49.366;8.530;2023-04-24T15:25:53;4.73;;;3.20;;